Terminal Aerodrome Forecast
Issued by NWS

Home | Current Version | Previous Version | Graphics & Text | Print | Product List | Glossary Off
Versions: 1 2 3 4 5 6 7 8 9 10 11 12 13 14 15 16 17 18 19 20 21 22 23 24 25 26 27 28 29 30 31 32 33 34 35 36 37 38 39 40 41 42 43 44 45

000
FTUS43 KDDC 171741 RRA
TAFGCK
TAF
KGCK 171741Z 1718/1818 12008KT P6SM BKN015
     FM172000 14016G22KT P6SM VCTS BKN090CB
     FM180000 14016KT P6SM OVC050
     FM180400 14006KT P6SM OVC050 PROB30 1804/1808 P6SM -SHRA
      OVC050=

USA.gov is the U.S. government's official web portal to all federal, state and local government web resources and services.